Time;durP1;ratioP1;P1;durP2;ratioP2;P2;SDS_P1;SDS_P2;PMS_P1;PMS_P2;Temp;Humidity;BMP_temperature;BMP_pressure;BME280_temperature;BME280_humidity;BME280_pressure;Samples;Min_cycle;Max_cycle;Signal;HPM_P1;HPM_P2
2021/05/26 00:00:55;;;;;;;3.08;0.70;;;;;;;9.32;80.23;100536.84;5027167;28;20124;-71
2021/05/26 00:03:23;;;;;;;1.85;0.70;;;;;;;9.37;79.20;100534.84;5028320;28;20128;-70
2021/05/26 00:05:50;;;;;;;3.50;1.10;;;;;;;9.35;78.84;100529.66;5038833;28;20105;-70
2021/05/26 00:08:29;;;;;;;2.63;0.70;;;;;;;9.29;79.74;100521.28;5023542;28;20053;-70
2021/05/26 00:10:57;;;;;;;0.95;0.65;;;;;;;9.25;79.13;100525.84;5024633;28;20049;-70
2021/05/26 00:13:25;;;;;;;4.22;0.80;;;;;;;9.25;79.08;100530.25;5047367;28;20075;-71
2021/05/26 00:15:53;;;;;;;3.42;0.70;;;;;;;9.06;79.74;100523.38;5031553;28;20547;-70
2021/05/26 00:18:21;;;;;;;3.78;0.95;;;;;;;9.09;81.00;100523.19;5029341;28;20144;-72
2021/05/26 00:20:49;;;;;;;4.82;0.80;;;;;;;9.16;79.82;100526.34;5010038;28;20053;-70
2021/05/26 00:23:16;;;;;;;2.95;0.75;;;;;;;9.07;80.05;100521.59;5026561;28;20056;-71
2021/05/26 00:25:43;;;;;;;1.02;0.63;;;;;;;8.99;79.81;100513.28;4997654;28;20051;-70
2021/05/26 00:28:11;;;;;;;0.88;0.80;;;;;;;8.94;81.96;100523.19;5037391;28;20064;-72
2021/05/26 00:30:45;;;;;;;3.00;0.70;;;;;;;9.13;81.34;100513.38;5030002;28;20053;-72
2021/05/26 00:33:12;;;;;;;2.00;0.70;;;;;;;9.10;79.97;100517.03;5014987;28;20497;-70
2021/05/26 00:35:39;;;;;;;1.48;0.70;;;;;;;8.94;80.79;100512.69;5000417;28;20053;-70
2021/05/26 00:38:07;;;;;;;1.67;0.90;;;;;;;8.98;81.11;100509.81;5010257;28;20076;-73
2021/05/26 00:40:34;;;;;;;2.38;0.82;;;;;;;9.01;81.13;100517.53;5020657;28;20395;-71
2021/05/26 00:43:02;;;;;;;1.88;0.77;;;;;;;9.05;80.79;100507.69;5029209;28;20426;-71
2021/05/26 00:45:30;;;;;;;1.75;0.70;;;;;;;9.15;80.84;100506.28;5010737;28;20455;-72
2021/05/26 00:47:57;;;;;;;1.25;0.85;;;;;;;9.27;79.48;100502.94;5022291;28;20051;-71
2021/05/26 00:50:27;;;;;;;1.45;0.70;;;;;;;9.26;79.46;100505.66;5035630;28;20419;-70
2021/05/26 00:52:59;;;;;;;0.90;0.50;;;;;;;9.22;80.32;100497.09;5012447;28;20053;-70
2021/05/26 00:55:26;;;;;;;2.45;0.80;;;;;;;9.26;79.70;100500.41;5030790;28;20452;-70
2021/05/26 00:57:54;;;;;;;3.70;0.70;;;;;;;9.36;79.78;100501.59;5022831;28;20049;-73
2021/05/26 01:00:24;;;;;;;3.40;0.93;;;;;;;9.34;79.39;100503.47;5028946;28;20112;-72
2021/05/26 01:02:52;;;;;;;2.17;0.90;;;;;;;9.38;79.15;100510.25;5009720;28;20041;-74
2021/05/26 01:05:22;;;;;;;1.05;0.75;;;;;;;9.39;79.10;100509.31;5024871;28;20053;-70
2021/05/26 01:07:50;;;;;;;1.63;0.60;;;;;;;9.39;78.95;100507.53;5039285;28;20446;-68
2021/05/26 01:10:19;;;;;;;3.25;0.70;;;;;;;9.38;79.01;100511.09;5033923;28;20059;-71
2021/05/26 01:12:47;;;;;;;2.13;0.95;;;;;;;9.38;79.43;100515.50;5032459;28;20056;-71
2021/05/26 01:15:53;;;;;;;2.87;1.10;;;;;;;9.44;78.77;100503.78;4952759;28;20132;-69
2021/05/26 01:18:21;;;;;;;2.63;0.60;;;;;;;9.38;79.01;100505.84;4998782;23;20111;-79
2021/05/26 01:20:48;;;;;;;2.75;0.73;;;;;;;9.34;79.20;100500.84;5030458;28;20725;-78
2021/05/26 01:23:17;;;;;;;1.65;0.75;;;;;;;9.36;78.87;100498.97;5055066;28;20075;-78
2021/05/26 01:25:47;;;;;;;1.25;0.82;;;;;;;9.34;78.73;100495.59;5020612;28;20096;-77
2021/05/26 01:28:14;;;;;;;1.95;0.70;;;;;;;9.20;79.94;100496.34;5009379;28;20048;-77
2021/05/26 01:30:43;;;;;;;2.60;1.00;;;;;;;9.28;80.59;100495.94;5030357;28;20812;-77
2021/05/26 01:33:10;;;;;;;2.55;1.05;;;;;;;9.14;81.18;100496.72;5016373;28;20049;-78
2021/05/26 01:35:42;;;;;;;1.20;0.80;;;;;;;9.27;80.27;100499.47;5015983;28;20103;-77
2021/05/26 01:38:18;;;;;;;1.88;0.60;;;;;;;9.40;79.76;100503.13;5011320;28;20052;-78
2021/05/26 01:40:45;;;;;;;;;;;;;;;9.41;79.39;100501.34;4995369;28;20064;-77
2021/05/26 01:43:12;;;;;;;2.53;0.80;;;;;;;9.40;79.56;100495.22;5029743;28;19925;-77
2021/05/26 01:45:40;;;;;;;1.02;0.70;;;;;;;9.42;79.12;100490.75;5026161;28;20060;-80
2021/05/26 01:48:08;;;;;;;2.55;0.90;;;;;;;9.45;78.52;100494.97;5017453;28;20239;-76
2021/05/26 01:50:35;;;;;;;1.52;0.63;;;;;;;9.40;79.19;100495.22;5023138;28;20088;-78
2021/05/26 01:53:05;;;;;;;1.92;0.75;;;;;;;9.41;79.74;100489.06;5034963;28;20048;-78
2021/05/26 01:55:33;;;;;;;1.20;0.75;;;;;;;9.41;79.42;100491.69;5017357;28;20056;-78
2021/05/26 01:58:00;;;;;;;2.90;0.90;;;;;;;9.38;79.88;100494.50;5039637;28;20080;-75
2021/05/26 02:00:28;;;;;;;2.65;0.90;;;;;;;9.36;79.34;100491.94;5011333;28;20041;-77
2021/05/26 02:02:55;;;;;;;5.53;1.52;;;;;;;9.30;80.32;100491.44;5013670;28;20462;-78
2021/05/26 02:05:23;;;;;;;1.27;0.90;;;;;;;9.25;80.79;100489.06;5046952;28;20475;-80
2021/05/26 02:07:52;;;;;;;2.22;0.85;;;;;;;9.31;79.94;100487.88;5011296;28;20088;-76
2021/05/26 02:13:06;;;;;;;1.25;0.70;;;;;;;9.40;80.33;100484.72;5029725;28;20080;-78
2021/05/26 02:15:33;;;;;;;2.10;1.00;;;;;;;9.42;80.06;100482.88;5047929;28;20076;-78
2021/05/26 02:18:03;;;;;;;2.08;0.85;;;;;;;9.45;80.79;100480.06;5010510;28;20488;-78
2021/05/26 02:20:30;;;;;;;2.00;1.15;;;;;;;9.36;80.35;100491.09;5005735;28;20606;-77
2021/05/26 02:22:58;;;;;;;2.08;0.77;;;;;;;9.29;80.86;100479.25;5025125;28;20128;-76
2021/05/26 02:25:25;;;;;;;2.38;0.80;;;;;;;9.45;79.75;100485.31;5027768;28;20056;-76
2021/05/26 02:27:52;;;;;;;2.47;0.98;;;;;;;9.41;79.73;100485.56;5024771;28;20132;-75
2021/05/26 02:30:20;;;;;;;4.03;1.30;;;;;;;9.46;80.27;100479.16;5027213;28;20156;-77
2021/05/26 02:32:47;;;;;;;1.60;0.80;;;;;;;9.41;80.50;100483.81;5022329;28;20055;-78
2021/05/26 02:35:14;;;;;;;1.27;0.80;;;;;;;9.24;81.38;100483.91;5008830;28;20045;-77
2021/05/26 02:37:41;;;;;;;2.45;0.95;;;;;;;9.23;81.43;100483.06;5021792;28;20087;-75
2021/05/26 02:40:13;;;;;;;1.80;0.73;;;;;;;9.30;81.13;100479.16;5025657;28;20081;-74
2021/05/26 02:42:41;;;;;;;1.33;0.80;;;;;;;9.40;81.93;100484.72;5021621;28;20045;-79
2021/05/26 02:45:08;;;;;;;1.88;0.90;;;;;;;9.34;81.03;100482.44;5027174;28;20058;-76
2021/05/26 02:47:36;;;;;;;2.75;1.10;;;;;;;9.27;81.74;100484.56;5026134;28;20403;-76
2021/05/26 02:50:03;;;;;;;2.00;0.80;;;;;;;9.24;81.83;100481.28;5006457;28;20081;-77
2021/05/26 02:52:31;;;;;;;1.70;1.02;;;;;;;9.20;82.66;100482.38;5024095;28;20132;-78
2021/05/26 02:54:58;;;;;;;1.63;1.00;;;;;;;9.27;82.99;100488.97;5026586;28;20388;-77
2021/05/26 02:57:25;;;;;;;1.75;0.98;;;;;;;9.36;82.32;100483.19;5024955;28;20136;-77
2021/05/26 02:59:53;;;;;;;4.32;0.93;;;;;;;9.23;82.81;100480.44;5007127;28;20051;-76
2021/05/26 03:02:20;;;;;;;3.33;1.00;;;;;;;9.25;82.49;100477.72;5027198;28;20123;-78
2021/05/26 03:04:47;;;;;;;2.55;0.90;;;;;;;9.32;82.87;100481.66;5011535;28;20124;-78
2021/05/26 03:07:14;;;;;;;2.17;0.80;;;;;;;9.26;82.75;100476.78;5024650;28;20136;-78
2021/05/26 03:09:41;;;;;;;3.72;1.00;;;;;;;9.21;82.56;100486.69;5027964;28;20613;-78
2021/05/26 03:12:09;;;;;;;7.03;1.42;;;;;;;9.32;82.29;100477.28;5029349;28;20073;-78
2021/05/26 03:14:36;;;;;;;3.10;1.00;;;;;;;9.34;82.44;100482.44;5030990;28;20132;-78
2021/05/26 03:17:03;;;;;;;8.10;1.10;;;;;;;9.36;82.35;100488.44;4994079;28;20042;-78
2021/05/26 03:19:31;;;;;;;2.92;1.10;;;;;;;9.38;82.23;100494.50;5011845;28;20115;-78
2021/05/26 03:21:59;;;;;;;1.27;0.80;;;;;;;9.36;81.90;100488.44;4999383;28;20069;-78
2021/05/26 03:24:26;;;;;;;1.48;0.98;;;;;;;9.29;83.24;100485.34;5010576;28;20045;-78
2021/05/26 03:26:53;;;;;;;3.92;1.08;;;;;;;9.45;81.85;100484.47;5029565;28;20042;-77
2021/05/26 03:29:21;;;;;;;3.38;1.27;;;;;;;9.52;82.56;100477.94;5032372;28;20077;-78
2021/05/26 03:31:48;;;;;;;4.50;1.25;;;;;;;9.59;82.03;100482.78;5033271;28;20460;-78
2021/05/26 03:34:15;;;;;;;9.20;1.92;;;;;;;9.71;81.23;100470.69;5016640;28;20116;-78
2021/05/26 03:36:43;;;;;;;2.42;1.33;;;;;;;9.70;81.48;100476.03;5030826;28;20065;-78
2021/05/26 03:39:10;;;;;;;9.05;1.20;;;;;;;9.69;81.64;100484.88;5026877;28;20060;-78
2021/05/26 03:41:39;;;;;;;8.05;1.48;;;;;;;9.57;82.36;100483.78;5035508;28;20056;-80
2021/05/26 03:44:07;;;;;;;1.85;1.05;;;;;;;9.71;81.60;100475.09;5041119;28;20136;-78
2021/05/26 03:50:23;;;;;;;3.38;1.10;;;;;;;9.72;81.13;100475.00;5023414;28;20508;-79
2021/05/26 03:52:51;;;;;;;2.33;0.98;;;;;;;9.78;80.82;100479.94;4999611;28;20045;-80
2021/05/26 03:55:20;;;;;;;4.95;1.27;;;;;;;9.74;81.82;100475.78;5026459;28;20124;-79
2021/05/26 03:57:48;;;;;;;5.28;1.00;;;;;;;9.81;80.86;100481.50;5035553;28;20064;-78
2021/05/26 04:00:17;;;;;;;2.92;0.98;;;;;;;9.81;81.02;100477.09;5019361;28;20077;-80
2021/05/26 04:02:45;;;;;;;3.13;1.10;;;;;;;9.92;80.29;100478.28;5034786;28;20457;-80
2021/05/26 04:05:12;;;;;;;1.63;1.00;;;;;;;9.90;80.12;100478.34;5017100;28;20445;-79
2021/05/26 04:07:40;;;;;;;1.65;0.90;;;;;;;9.99;79.47;100475.19;5038230;28;20046;-79
2021/05/26 04:10:08;;;;;;;5.18;1.20;;;;;;;10.12;79.47;100470.03;5021667;28;20113;-80
2021/05/26 04:12:36;;;;;;;2.10;1.33;;;;;;;10.43;78.33;100471.72;5026720;28;20111;-79
2021/05/26 04:15:05;;;;;;;2.97;1.33;;;;;;;10.84;76.60;100470.94;5008270;28;20081;-79
2021/05/26 04:17:33;;;;;;;3.97;1.55;;;;;;;11.52;73.33;100467.47;5030114;28;20071;-78
2021/05/26 04:20:04;;;;;;;3.05;1.00;;;;;;;11.80;71.87;100464.75;5021336;28;20037;-78
2021/05/26 04:22:32;;;;;;;2.63;0.95;;;;;;;11.59;72.66;100464.34;5026604;28;20160;-79
2021/05/26 04:25:00;;;;;;;5.53;1.00;;;;;;;11.54;72.89;100461.19;5022540;28;20049;-80
2021/05/26 04:31:34;;;;;;;2.58;1.13;;;;;;;11.08;74.49;100464.16;5054743;28;20044;-79
2021/05/26 04:34:01;;;;;;;2.40;0.80;;;;;;;11.13;74.36;100466.50;5044648;28;20084;-79
2021/05/26 04:36:28;;;;;;;3.10;1.27;;;;;;;11.06;75.39;100457.28;5039064;28;20128;-79
2021/05/26 04:38:56;;;;;;;4.75;1.02;;;;;;;11.06;75.46;100455.47;5039521;28;20136;-79
2021/05/26 04:41:23;;;;;;;6.50;1.45;;;;;;;11.15;75.22;100452.25;5021478;28;20507;-80
2021/05/26 04:43:50;;;;;;;2.95;1.15;;;;;;;11.53;74.19;100453.38;5014374;28;20045;-80
2021/05/26 04:46:17;;;;;;;2.53;1.17;;;;;;;11.82;72.67;100457.59;5038471;28;20109;-81
2021/05/26 04:48:44;;;;;;;5.32;1.38;;;;;;;11.97;71.96;100445.16;5034206;28;20080;-77
2021/05/26 04:51:12;;;;;;;6.97;1.60;;;;;;;12.16;70.77;100447.41;5021817;28;20110;-78
2021/05/26 04:53:39;;;;;;;4.18;1.55;;;;;;;13.79;65.53;100453.34;5034187;28;20073;-75
2021/05/26 04:56:06;;;;;;;3.05;1.20;;;;;;;15.65;59.11;100444.88;5027112;28;20144;-76
2021/05/26 04:58:33;;;;;;;2.90;1.30;;;;;;;16.84;55.09;100441.78;5011732;28;20053;-78
2021/05/26 05:01:00;;;;;;;3.03;1.30;;;;;;;19.15;48.86;100439.00;5031819;28;20083;-78
2021/05/26 05:03:28;;;;;;;4.85;1.58;;;;;;;18.71;47.82;100436.97;5032593;28;20073;-78
2021/05/26 05:05:55;;;;;;;5.60;1.40;;;;;;;17.86;49.67;100437.88;5025617;28;20080;-75
2021/05/26 05:08:22;;;;;;;3.25;1.20;;;;;;;17.08;51.99;100438.81;5039277;28;20392;-74
2021/05/26 05:10:53;;;;;;;3.97;1.60;;;;;;;15.99;55.08;100442.06;5051098;28;20053;-77
2021/05/26 05:13:20;;;;;;;2.67;1.10;;;;;;;15.57;56.42;100445.47;5054484;28;20132;-79
2021/05/26 05:15:47;;;;;;;4.13;1.55;;;;;;;14.96;58.44;100441.69;5020754;28;20144;-79
2021/05/26 05:18:15;;;;;;;3.03;1.20;;;;;;;14.56;59.97;100443.03;5023590;28;20472;-77
2021/05/26 05:20:42;;;;;;;3.17;1.60;;;;;;;15.14;58.82;100433.09;5025206;28;20068;-76
2021/05/26 05:23:09;;;;;;;5.82;1.67;;;;;;;16.61;53.92;100441.13;5039832;28;20068;-75
2021/05/26 05:25:36;;;;;;;2.58;1.30;;;;;;;17.21;52.46;100439.38;5032710;28;20117;-75
2021/05/26 05:28:05;;;;;;;5.13;2.28;;;;;;;18.45;49.31;100427.94;5046761;28;20084;-76
2021/05/26 05:30:32;;;;;;;1.77;1.08;;;;;;;18.40;48.15;100428.38;5032336;28;20053;-76
2021/05/26 05:32:59;;;;;;;4.90;1.38;;;;;;;18.16;49.06;100428.03;5032754;28;20049;-77
2021/05/26 05:35:28;;;;;;;3.72;1.42;;;;;;;17.93;49.10;100436.34;5047398;28;20507;-74
2021/05/26 05:37:55;;;;;;;4.20;1.73;;;;;;;16.67;51.99;100436.13;5034085;28;20045;-75
2021/05/26 05:40:22;;;;;;;5.40;1.45;;;;;;;15.46;55.37;100432.25;5013361;28;20087;-74
2021/05/26 05:42:50;;;;;;;3.42;1.25;;;;;;;15.23;56.46;100431.50;5031016;28;20055;-74
2021/05/26 05:45:17;;;;;;;5.45;1.60;;;;;;;14.51;59.02;100436.41;5030665;28;20563;-76
2021/05/26 05:47:44;;;;;;;2.10;1.30;;;;;;;13.85;61.84;100430.84;5030863;28;20087;-74
2021/05/26 05:50:18;;;;;;;6.60;1.65;;;;;;;14.16;61.20;100434.66;5034941;28;20071;-73
2021/05/26 05:52:49;;;;;;;11.10;2.60;;;;;;;14.49;59.57;100431.22;5047163;28;20446;-74
2021/05/26 05:55:16;;;;;;;2.95;1.25;;;;;;;15.99;55.13;100428.78;5017490;28;20064;-74
2021/05/26 05:57:44;;;;;;;6.18;1.58;;;;;;;16.22;54.07;100432.16;5025548;28;20136;-75
2021/05/26 06:00:12;;;;;;;9.88;1.42;;;;;;;15.49;55.40;100439.97;5012786;28;20132;-75
2021/05/26 06:02:39;;;;;;;4.15;1.63;;;;;;;14.84;57.74;100433.72;5011739;28;20075;-75
2021/05/26 06:05:08;;;;;;;3.58;1.40;;;;;;;13.79;60.95;100428.69;5046611;28;20091;-73
2021/05/26 06:07:35;;;;;;;6.90;1.70;;;;;;;13.47;62.17;100436.38;5024963;28;20509;-75
2021/05/26 06:10:04;;;;;;;6.18;1.83;;;;;;;13.27;63.60;100441.31;5025000;28;20148;-73
2021/05/26 06:12:31;;;;;;;5.25;1.58;;;;;;;13.31;63.19;100434.84;5045985;28;20171;-74
2021/05/26 06:14:58;;;;;;;4.88;1.42;;;;;;;13.65;61.59;100437.66;5000549;28;20056;-74
2021/05/26 06:17:26;;;;;;;5.85;1.70;;;;;;;14.09;60.37;100438.72;5040099;28;20057;-74
2021/05/26 06:19:53;;;;;;;7.82;2.05;;;;;;;13.63;61.84;100435.09;5001475;28;20168;-74
2021/05/26 06:22:21;;;;;;;3.60;1.40;;;;;;;14.07;60.87;100438.00;5014940;28;20449;-74
2021/05/26 06:24:48;;;;;;;3.30;1.40;;;;;;;13.94;60.99;100433.63;5032701;28;20144;-74
2021/05/26 06:27:15;;;;;;;5.90;1.45;;;;;;;13.63;62.41;100437.75;5048793;28;20610;-74
2021/05/26 06:29:43;;;;;;;4.97;1.35;;;;;;;13.69;61.84;100439.13;5036185;28;20061;-73
2021/05/26 06:32:10;;;;;;;7.72;1.45;;;;;;;13.33;62.59;100437.41;5028857;28;20148;-71
2021/05/26 06:34:38;;;;;;;2.55;1.10;;;;;;;13.57;62.49;100434.72;5047078;28;20110;-74
2021/05/26 06:37:06;;;;;;;5.00;1.60;;;;;;;13.94;61.58;100435.44;4992943;28;20056;-70
2021/05/26 06:39:34;;;;;;;2.78;1.10;;;;;;;15.08;58.63;100433.56;5038504;28;20060;-71
2021/05/26 06:42:01;;;;;;;5.18;1.73;;;;;;;15.79;55.61;100430.47;5030181;28;20080;-71
2021/05/26 06:44:28;;;;;;;3.15;1.17;;;;;;;16.17;53.91;100422.75;5045273;28;20566;-71
2021/05/26 06:46:55;;;;;;;5.82;1.13;;;;;;;15.96;54.49;100419.25;5042341;28;20077;-70
2021/05/26 06:49:23;;;;;;;2.47;1.67;;;;;;;16.23;54.66;100434.66;5044591;28;20049;-71
2021/05/26 06:51:50;;;;;;;7.10;1.48;;;;;;;16.62;53.08;100421.56;5048042;28;20071;-72
2021/05/26 06:54:17;;;;;;;6.53;1.25;;;;;;;16.50;53.09;100427.94;5030002;28;20060;-72
2021/05/26 06:56:44;;;;;;;2.42;1.10;;;;;;;16.15;53.83;100416.72;5026655;28;20586;-73
2021/05/26 06:59:11;;;;;;;4.78;1.27;;;;;;;15.84;53.98;100422.94;5042315;28;20144;-71
2021/05/26 07:01:39;;;;;;;6.85;1.75;;;;;;;15.67;54.04;100416.41;5031487;28;20489;-71
2021/05/26 07:04:06;;;;;;;6.85;1.30;;;;;;;15.16;55.86;100420.53;5037679;28;20045;-71
2021/05/26 07:06:33;;;;;;;5.38;1.40;;;;;;;14.57;57.96;100425.31;5031911;28;20049;-70
2021/05/26 07:09:01;;;;;;;6.15;1.60;;;;;;;14.75;57.36;100423.03;5018275;28;20570;-72
2021/05/26 07:11:28;;;;;;;4.00;1.10;;;;;;;15.05;57.09;100420.56;5030428;28;20224;-71
2021/05/26 07:13:55;;;;;;;6.57;1.45;;;;;;;15.05;57.63;100419.72;5014548;28;20117;-70
2021/05/26 07:16:22;;;;;;;4.30;1.52;;;;;;;17.22;51.67;100414.47;5043091;28;20140;-72
2021/05/26 07:18:52;;;;;;;3.10;1.05;;;;;;;18.51;47.91;100408.72;5025570;28;20072;-72
2021/05/26 07:21:19;;;;;;;3.97;1.10;;;;;;;17.76;48.36;100414.91;5021142;28;20069;-71
2021/05/26 07:23:46;;;;;;;9.55;1.63;;;;;;;16.66;50.76;100423.81;5028184;28;20053;-72
2021/05/26 07:26:13;;;;;;;3.30;1.20;;;;;;;16.39;52.06;100419.09;5023355;28;20089;-72
2021/05/26 07:28:41;;;;;;;3.50;1.30;;;;;;;16.20;51.41;100414.50;5026308;28;20195;-71
2021/05/26 07:31:08;;;;;;;8.05;1.60;;;;;;;15.46;53.05;100424.31;5027027;28;20053;-71
2021/05/26 07:33:35;;;;;;;11.45;1.70;;;;;;;14.61;54.01;100417.00;5028859;28;20045;-70
2021/05/26 07:36:03;;;;;;;4.80;1.85;;;;;;;14.59;54.57;100424.25;5027005;28;20069;-71
2021/05/26 07:38:38;;;;;;;7.53;1.60;;;;;;;14.82;54.43;100426.88;5018434;28;20092;-72
2021/05/26 07:41:07;;;;;;;6.63;2.38;;;;;;;14.94;53.68;100413.47;5006532;28;20049;-70
2021/05/26 07:43:35;;;;;;;7.18;2.05;;;;;;;16.68;49.54;100413.88;5025374;28;20140;-71
2021/05/26 07:46:04;;;;;;;3.97;1.55;;;;;;;18.53;43.80;100411.22;5026713;28;20048;-70
2021/05/26 07:48:31;;;;;;;3.97;1.45;;;;;;;18.41;44.05;100410.53;5016239;28;20440;-71
2021/05/26 07:50:59;;;;;;;7.40;1.63;;;;;;;17.86;44.62;100413.91;5023505;28;20060;-70
2021/05/26 07:53:27;;;;;;;4.82;1.52;;;;;;;16.93;47.04;100414.38;5020173;28;20225;-72
2021/05/26 07:55:54;;;;;;;8.43;1.58;;;;;;;16.98;46.93;100414.00;5024320;28;20459;-71
2021/05/26 07:58:21;;;;;;;10.45;2.55;;;;;;;17.10;46.53;100408.41;5022941;28;20057;-71
2021/05/26 08:00:50;;;;;;;4.45;1.75;;;;;;;17.23;46.55;100410.81;5023041;28;20053;-71
2021/05/26 08:03:18;;;;;;;13.93;2.20;;;;;;;17.42;46.16;100410.81;5022637;28;20053;-70
2021/05/26 08:05:45;;;;;;;8.40;1.42;;;;;;;17.43;46.17;100404.53;5025206;28;20061;-70
2021/05/26 08:08:13;;;;;;;5.40;1.50;;;;;;;17.80;45.26;100395.84;5021301;28;20508;-71
2021/05/26 08:10:41;;;;;;;8.68;1.25;;;;;;;17.26;46.05;100399.06;5020032;28;20152;-69
2021/05/26 08:13:09;;;;;;;2.50;1.05;;;;;;;17.26;46.48;100404.38;5013633;28;20515;-72
2021/05/26 08:15:37;;;;;;;5.40;1.25;;;;;;;17.08;46.42;100401.56;5024300;28;20128;-69
2021/05/26 08:18:10;;;;;;;5.68;1.88;;;;;;;16.90;47.91;100396.91;5028435;28;20531;-71
2021/05/26 08:20:39;;;;;;;10.73;1.80;;;;;;;16.00;49.43;100403.91;5020838;28;20049;-72
2021/05/26 08:23:07;;;;;;;6.18;1.85;;;;;;;16.20;49.60;100397.72;5021114;28;20077;-71
2021/05/26 08:25:34;;;;;;;6.13;1.88;;;;;;;16.37;50.04;100398.94;5004658;28;20560;-70
2021/05/26 08:28:02;;;;;;;7.00;1.67;;;;;;;15.67;51.37;100390.72;5019006;28;20456;-71
2021/05/26 08:30:29;;;;;;;5.05;1.25;;;;;;;15.49;51.29;100399.31;5024247;28;20083;-70
2021/05/26 08:32:56;;;;;;;3.65;1.35;;;;;;;15.39;52.09;100391.28;5014462;28;20684;-70
2021/05/26 08:35:23;;;;;;;6.72;1.45;;;;;;;15.50;51.54;100390.41;5017834;28;20154;-71
2021/05/26 08:37:51;;;;;;;2.83;1.05;;;;;;;15.93;50.47;100387.66;5004345;28;20053;-70
2021/05/26 08:40:19;;;;;;;3.58;1.45;;;;;;;16.35;49.55;100384.97;4990802;28;20485;-68
2021/05/26 08:42:46;;;;;;;3.50;1.55;;;;;;;17.29;46.02;100377.47;5022037;28;20049;-71
2021/05/26 08:45:15;;;;;;;4.25;1.58;;;;;;;17.49;45.72;100376.53;5023461;28;20145;-71
2021/05/26 08:47:45;;;;;;;6.32;1.33;;;;;;;17.31;46.60;100373.72;5024588;28;20418;-67
2021/05/26 08:50:14;;;;;;;3.53;1.25;;;;;;;17.02;47.08;100379.03;5028202;28;20049;-69
2021/05/26 08:52:44;;;;;;;5.85;1.63;;;;;;;16.76;47.60;100376.03;4991142;28;20128;-68
2021/05/26 08:55:16;;;;;;;5.55;1.25;;;;;;;16.60;47.72;100376.50;5009276;28;20064;-68
2021/05/26 08:57:43;;;;;;;4.22;1.17;;;;;;;16.33;49.27;100370.94;5025427;28;20113;-69
2021/05/26 09:00:11;;;;;;;4.07;1.30;;;;;;;16.42;49.11;100370.16;5021677;28;20117;-69
2021/05/26 09:02:39;;;;;;;3.25;0.88;;;;;;;17.48;46.72;100358.88;5025340;28;20208;-69
2021/05/26 09:05:25;;;;;;;4.43;1.25;;;;;;;17.88;45.12;100353.38;5025230;28;20437;-68
2021/05/26 09:07:53;;;;;;;2.88;1.05;;;;;;;18.44;43.16;100357.78;5024217;28;20099;-69
2021/05/26 09:10:20;;;;;;;4.28;1.33;;;;;;;19.06;42.47;100350.03;5031034;28;20145;-68
2021/05/26 09:12:50;;;;;;;4.75;2.95;;;;;;;19.11;41.62;100345.06;5021629;28;20077;-68
2021/05/26 09:15:20;;;;;;;2.50;1.40;;;;;;;19.05;42.34;100343.00;5024459;28;20055;-70
2021/05/26 09:17:51;;;;;;;2.72;1.10;;;;;;;19.56;41.45;100337.94;5028477;28;20417;-70
2021/05/26 09:20:26;;;;;;;4.80;1.40;;;;;;;20.02;40.59;100343.94;5027013;28;20115;-68
2021/05/26 09:23:28;;;;;;;3.00;1.30;;;;;;;19.33;42.08;100345.59;5029343;28;20091;-68
2021/05/26 09:25:58;;;;;;;3.67;1.38;;;;;;;18.98;42.30;100342.75;5043108;28;20644;-68
2021/05/26 09:28:33;;;;;;;3.35;1.00;;;;;;;18.58;42.29;100345.78;5027664;28;20087;-68
2021/05/26 09:31:04;;;;;;;3.45;1.30;;;;;;;17.80;43.72;100347.09;5029851;28;20045;-71
2021/05/26 09:33:35;;;;;;;4.82;1.10;;;;;;;17.68;43.97;100344.53;5043037;28;20448;-69
2021/05/26 09:36:14;;;;;;;3.13;1.20;;;;;;;17.41;43.96;100353.25;5012852;28;20767;-67
2021/05/26 09:38:56;;;;;;;2.90;1.15;;;;;;;17.28;44.55;100354.53;5047548;28;20114;-68
2021/05/26 09:41:31;;;;;;;5.07;1.50;;;;;;;17.18;45.14;100342.06;5029722;28;20504;-68
2021/05/26 09:44:03;;;;;;;;;;;;;;;16.94;45.95;100345.13;5041313;28;20076;-69
2021/05/26 09:46:32;;;;;;;2.08;0.85;;;;;;;16.93;45.95;100354.09;5043761;28;19962;-68
2021/05/26 09:49:03;;;;;;;2.00;1.00;;;;;;;17.18;45.46;100336.75;5046486;28;20082;-68
2021/05/26 09:51:32;;;;;;;8.43;1.55;;;;;;;16.86;46.43;100339.66;5031172;28;20061;-68
2021/05/26 09:54:13;;;;;;;4.90;1.00;;;;;;;17.34;45.90;100330.88;5028596;28;20483;-68
2021/05/26 09:56:42;;;;;;;5.70;1.25;;;;;;;17.65;44.33;100328.88;5045209;28;20591;-71
2021/05/26 09:59:09;;;;;;;7.15;1.95;;;;;;;17.64;44.22;100329.84;5044235;28;20057;-68
2021/05/26 10:01:37;;;;;;;3.95;1.52;;;;;;;17.37;44.43;100337.72;5044657;28;20049;-66
2021/05/26 10:04:05;;;;;;;3.55;1.05;;;;;;;17.25;44.18;100330.88;5026759;28;20091;-67
2021/05/26 10:06:32;;;;;;;5.28;1.40;;;;;;;17.06;45.26;100337.00;5044132;28;20049;-68
2021/05/26 10:09:00;;;;;;;6.68;1.33;;;;;;;17.17;45.98;100329.75;5031562;28;20053;-66
2021/05/26 10:11:29;;;;;;;6.88;1.63;;;;;;;17.65;45.29;100338.66;5030454;28;20045;-66
2021/05/26 10:13:57;;;;;;;7.45;1.80;;;;;;;17.90;44.58;100335.41;5027144;28;20045;-69
2021/05/26 10:16:24;;;;;;;6.20;1.65;;;;;;;17.54;44.80;100326.38;5028093;28;20053;-66
2021/05/26 10:18:52;;;;;;;4.60;1.50;;;;;;;17.58;45.22;100324.25;5040495;28;20083;-67
2021/05/26 10:21:23;;;;;;;3.95;1.23;;;;;;;17.17;45.99;100321.78;5044801;28;20770;-68
2021/05/26 10:23:54;;;;;;;4.63;1.25;;;;;;;16.93;46.29;100327.50;5023825;28;20212;-68
2021/05/26 10:26:56;;;;;;;9.60;1.63;;;;;;;17.24;45.17;100318.53;5009997;28;21124;-68
2021/05/26 10:29:29;;;;;;;4.38;1.40;;;;;;;17.17;46.20;100316.44;5045195;28;20045;-67
2021/05/26 10:32:02;;;;;;;4.88;1.25;;;;;;;17.16;45.62;100308.63;5038135;28;20136;-69
2021/05/26 10:34:46;;;;;;;6.20;1.13;;;;;;;16.25;48.43;100325.63;5042286;28;20061;-66
2021/05/26 10:37:24;;;;;;;6.93;1.50;;;;;;;15.63;53.32;100332.69;5041818;28;20053;-66
2021/05/26 10:39:52;;;;;;;4.53;1.10;;;;;;;15.59;55.00;100329.44;5039302;28;20076;-68
2021/05/26 10:42:32;;;;;;;5.75;1.42;;;;;;;16.01;53.48;100333.91;5045063;28;20072;-67
2021/05/26 10:45:05;;;;;;;6.75;1.85;;;;;;;16.32;52.01;100332.91;5032283;28;20113;-68
2021/05/26 10:47:35;;;;;;;5.88;1.60;;;;;;;16.78;50.19;100336.00;5043240;28;20524;-67
2021/05/26 10:50:24;;;;;;;4.90;1.55;;;;;;;16.69;52.09;100346.44;5049613;28;20057;-68
2021/05/26 10:52:54;;;;;;;4.03;1.25;;;;;;;17.40;49.91;100334.78;5046994;28;20053;-68
2021/05/26 10:55:40;;;;;;;7.20;1.10;;;;;;;18.39;46.48;100322.75;5046346;28;20570;-71
2021/05/26 10:58:26;;;;;;;;;;;;;;;18.47;45.39;100325.53;5041787;28;20739;-67
2021/05/26 11:00:56;;;;;;;4.43;1.60;;;;;;;18.38;45.67;100312.25;5027518;28;20340;-68
2021/05/26 11:03:23;;;;;;;5.75;1.20;;;;;;;18.38;45.74;100309.59;5045911;28;20053;-68
2021/05/26 11:05:58;;;;;;;4.63;1.17;;;;;;;18.36;45.47;100312.38;5027143;28;20079;-68
2021/05/26 11:08:51;;;;;;;3.63;1.20;;;;;;;18.40;45.32;100302.25;5024126;28;20056;-67
2021/05/26 11:11:24;;;;;;;3.95;1.08;;;;;;;18.00;45.75;100302.59;5039283;28;20045;-68
2021/05/26 11:14:02;;;;;;;8.57;1.45;;;;;;;17.79;46.47;100294.84;5040230;28;20049;-68
2021/05/26 11:16:51;;;;;;;2.55;1.08;;;;;;;17.43;48.13;100294.59;5025288;28;20136;-67
2021/05/26 11:19:31;;;;;;;5.82;1.80;;;;;;;17.75;47.36;100293.44;5027491;28;20158;-66
2021/05/26 11:22:00;;;;;;;5.90;1.45;;;;;;;18.61;45.92;100289.50;5015310;28;20684;-67
2021/05/26 11:24:33;;;;;;;4.82;1.52;;;;;;;18.48;45.67;100287.22;5044845;28;20052;-69
2021/05/26 11:27:02;;;;;;;5.28;1.33;;;;;;;18.21;46.29;100287.22;5039226;28;20044;-67
2021/05/26 11:29:34;;;;;;;4.43;1.48;;;;;;;18.63;45.00;100276.88;5033204;28;20508;-68
2021/05/26 11:32:12;;;;;;;9.55;1.92;;;;;;;19.19;43.76;100281.09;5044955;28;20128;-67
2021/05/26 11:34:44;;;;;;;4.22;1.50;;;;;;;19.07;43.57;100274.31;5042230;28;20174;-67
2021/05/26 11:37:12;;;;;;;4.95;1.52;;;;;;;18.49;44.87;100264.06;5047738;28;20144;-67
2021/05/26 11:39:39;;;;;;;4.35;1.35;;;;;;;18.79;44.58;100267.41;5027967;28;20089;-66
2021/05/26 11:42:06;;;;;;;3.72;1.30;;;;;;;18.26;45.17;100268.13;5046710;28;20065;-68
2021/05/26 11:44:35;;;;;;;4.15;1.35;;;;;;;18.18;44.95;100271.53;5029209;28;20049;-67
2021/05/26 11:47:03;;;;;;;5.95;1.25;;;;;;;17.91;45.53;100273.19;5044618;28;20060;-68
2021/05/26 11:49:35;;;;;;;6.13;1.02;;;;;;;17.85;44.33;100270.28;5049131;28;20177;-68